createdAt,value
2023-03-06T00:00:59.599Z,16.70
2023-03-06T00:04:23.032Z,15.10
2023-03-06T00:08:00.626Z,14.40
2023-03-06T00:11:38.359Z,12.40
2023-03-06T00:15:36.211Z,10.60
2023-03-06T00:19:00.609Z,15.90
2023-03-06T00:22:39.223Z,10.40
2023-03-06T00:26:16.008Z,12.30
2023-03-06T00:29:58.235Z,11.00
2023-03-06T00:33:31.472Z,19.80
2023-03-06T00:37:27.813Z,15.00
2023-03-06T00:40:51.438Z,14.30
2023-03-06T00:44:29.029Z,15.50
2023-03-06T00:48:27.370Z,13.30
2023-03-06T00:52:13.979Z,13.00
2023-03-06T00:55:37.723Z,13.30
2023-03-06T00:59:13.735Z,15.80
2023-03-06T01:02:53.678Z,15.60
2023-03-06T01:06:29.067Z,23.20
2023-03-06T01:10:10.009Z,16.60
2023-03-06T01:14:05.814Z,15.30
2023-03-06T01:17:28.092Z,16.00
2023-03-06T01:21:08.077Z,13.60
2023-03-06T01:24:44.696Z,14.90
2023-03-06T01:28:20.975Z,14.70
2023-03-06T01:31:58.811Z,18.40
2023-03-06T01:35:40.960Z,13.50
2023-03-06T01:39:14.303Z,10.80
2023-03-06T01:42:51.620Z,9.10
2023-03-06T01:46:30.275Z,14.60
2023-03-06T01:50:11.957Z,12.90
2023-03-06T01:53:47.968Z,17.80
2023-03-06T01:57:44.740Z,13.40
2023-03-06T02:01:26.659Z,22.20
2023-03-06T02:04:51.207Z,22.60
2023-03-06T02:08:29.824Z,20.50
2023-03-06T02:12:26.788Z,18.60
2023-03-06T02:15:50.857Z,19.50
2023-03-06T02:20:09.954Z,16.30
2023-03-06T02:23:39.536Z,17.70
2023-03-06T02:27:14.332Z,21.10
2023-03-06T02:31:07.411Z,15.50
2023-03-06T02:34:55.837Z,26.00
2023-03-06T02:38:21.629Z,20.70
2023-03-06T02:41:56.206Z,30.10
2023-03-06T02:45:53.133Z,27.60
2023-03-06T02:49:15.636Z,19.80
2023-03-06T02:52:54.964Z,23.20
2023-03-06T02:56:30.931Z,14.50
2023-03-06T03:00:10.041Z,19.00
2023-03-06T03:03:46.072Z,15.50
2023-03-06T03:07:23.927Z,17.90
2023-03-06T03:11:02.340Z,27.80
2023-03-06T03:14:39.317Z,29.10
2023-03-06T03:18:36.012Z,24.10
2023-03-06T03:21:59.281Z,18.30
2023-03-06T03:25:55.473Z,15.10
2023-03-06T03:29:19.337Z,17.50
2023-03-06T03:33:14.952Z,18.70
2023-03-06T03:36:58.368Z,20.80
2023-03-06T03:40:28.705Z,17.60
2023-03-06T03:44:18.643Z,20.20
2023-03-06T03:47:41.559Z,17.80
2023-03-06T03:51:38.317Z,14.90
2023-03-06T03:55:00.726Z,12.70
2023-03-06T03:58:57.406Z,16.90
2023-03-06T04:02:42.086Z,16.20
2023-03-06T04:06:33.376Z,16.20
2023-03-06T04:10:18.184Z,16.40
2023-03-06T04:13:42.423Z,19.00
2023-03-06T04:17:18.478Z,19.80
2023-03-06T04:20:56.476Z,14.40
2023-03-06T04:24:35.064Z,18.40
2023-03-06T04:28:30.544Z,10.70
2023-03-06T04:32:14.448Z,17.10
2023-03-06T04:35:56.152Z,20.00
2023-03-06T04:39:41.026Z,20.10
2023-03-06T04:43:24.678Z,22.10
2023-03-06T04:46:51.299Z,24.10
2023-03-06T04:50:28.406Z,21.40
2023-03-06T04:54:07.920Z,21.20
2023-03-06T04:57:44.207Z,33.70
2023-03-06T05:01:38.894Z,26.60
2023-03-06T05:05:20.486Z,27.00
2023-03-06T05:08:42.817Z,28.40
2023-03-06T05:12:20.659Z,28.60
2023-03-06T05:16:20.255Z,23.90
2023-03-06T05:19:43.535Z,24.50
2023-03-06T05:23:20.287Z,32.00
2023-03-06T05:26:58.535Z,32.90
2023-03-06T05:30:54.830Z,37.60
2023-03-06T05:34:17.443Z,43.70
2023-03-06T05:37:55.118Z,51.50
2023-03-06T05:41:51.641Z,53.50
2023-03-06T05:45:34.667Z,28.30
2023-03-06T05:48:57.954Z,71.20
2023-03-06T05:52:35.003Z,37.90
2023-03-06T05:56:13.837Z,41.50
2023-03-06T06:00:11.988Z,48.80
2023-03-06T06:03:56.467Z,57.00
2023-03-06T06:07:38.145Z,48.50
2023-03-06T06:11:00.623Z,42.30
2023-03-06T06:14:38.221Z,43.20
2023-03-06T06:18:18.723Z,40.80
2023-03-06T06:21:54.199Z,39.50
2023-03-06T06:25:33.215Z,43.50
2023-03-06T06:29:29.842Z,32.40
2023-03-06T06:33:11.114Z,45.10
2023-03-06T06:36:53.896Z,50.10
2023-03-06T06:40:35.056Z,41.00
2023-03-06T06:43:59.012Z,38.50
2023-03-06T06:47:34.861Z,44.60
2023-03-06T06:51:12.584Z,41.10
2023-03-06T06:55:13.132Z,44.30
2023-03-06T06:59:01.319Z,38.20
2023-03-06T07:02:33.184Z,75.30
2023-03-06T07:06:31.195Z,32.20
2023-03-06T07:09:55.722Z,29.10
2023-03-06T07:13:30.863Z,37.90
2023-03-06T07:17:09.792Z,36.40
2023-03-06T07:20:46.121Z,38.90
2023-03-06T07:24:24.005Z,48.70
2023-03-06T07:28:01.859Z,37.10
2023-03-06T07:31:42.090Z,31.50
2023-03-06T07:35:37.622Z,37.90
2023-03-06T07:39:00.808Z,31.90
2023-03-06T07:42:38.571Z,28.30
2023-03-06T07:46:16.265Z,28.40
2023-03-06T07:49:57.185Z,33.50
2023-03-06T07:53:32.603Z,24.40
2023-03-06T07:57:30.609Z,27.20
2023-03-06T08:01:19.646Z,27.80
2023-03-06T08:05:03.576Z,27.80
2023-03-06T08:08:29.424Z,25.40
2023-03-06T08:12:07.119Z,30.30
2023-03-06T08:15:49.580Z,29.50
2023-03-06T08:19:40.070Z,31.80
2023-03-06T08:23:04.389Z,39.00
2023-03-06T08:26:40.613Z,25.50
2023-03-06T08:30:19.658Z,27.30
2023-03-06T08:33:59.109Z,20.20
2023-03-06T08:37:33.973Z,25.30
2023-03-06T08:41:31.064Z,18.20
2023-03-06T08:44:54.196Z,15.70
2023-03-06T08:48:50.787Z,19.30
2023-03-06T08:52:32.032Z,20.60
2023-03-06T08:56:22.680Z,15.20
2023-03-06T08:59:44.777Z,16.30
2023-03-06T09:03:25.627Z,16.60
2023-03-06T09:07:00.504Z,18.00
2023-03-06T09:10:46.699Z,17.40
2023-03-06T09:14:15.755Z,19.20
2023-03-06T09:17:54.469Z,14.70
2023-03-06T09:21:49.816Z,14.80
2023-03-06T09:25:13.937Z,13.00
2023-03-06T09:28:52.094Z,18.50
2023-03-06T09:32:46.380Z,16.90
2023-03-06T09:36:14.290Z,17.70
2023-03-06T09:40:07.602Z,11.60
2023-03-06T09:44:04.285Z,17.50
2023-03-06T09:48:04.910Z,15.60
2023-03-06T09:51:36.966Z,19.70
2023-03-06T09:55:29.765Z,44.20
2023-03-06T09:59:16.733Z,10.30
2023-03-06T10:02:44.956Z,10.40
2023-03-06T10:06:49.559Z,11.90
2023-03-06T10:10:20.746Z,9.30
2023-03-06T10:14:12.659Z,11.40
2023-03-06T10:17:57.363Z,11.00
2023-03-06T10:21:40.683Z,8.80
2023-03-06T10:25:28.027Z,9.90
2023-03-06T10:29:00.988Z,7.50
2023-03-06T10:32:57.937Z,7.90
2023-03-06T10:36:41.724Z,9.70
2023-03-06T10:40:35.961Z,9.10
2023-03-06T10:44:04.898Z,10.70
2023-03-06T10:48:11.296Z,6.70
2023-03-06T10:51:35.633Z,7.80
2023-03-06T10:55:32.276Z,6.70
2023-03-06T10:59:18.076Z,6.40
2023-03-06T11:02:41.246Z,9.90
2023-03-06T11:06:39.824Z,7.40
2023-03-06T11:10:22.985Z,6.40
2023-03-06T11:14:13.909Z,10.60
2023-03-06T11:18:23.603Z,10.70
2023-03-06T11:22:18.437Z,20.80
2023-03-06T11:25:44.305Z,17.90
2023-03-06T11:29:38.598Z,12.00
2023-03-06T11:33:12.517Z,10.30
2023-03-06T11:37:01.520Z,6.20
2023-03-06T11:40:59.102Z,10.70
2023-03-06T11:44:50.394Z,6.30
2023-03-06T11:48:13.538Z,6.20
2023-03-06T11:52:18.994Z,8.00
2023-03-06T11:55:58.147Z,6.60
2023-03-06T11:59:37.338Z,6.50
2023-03-06T12:03:24.352Z,5.90
2023-03-06T12:07:23.473Z,7.90
2023-03-06T12:11:01.551Z,11.90
2023-03-06T12:14:38.115Z,11.80
2023-03-06T12:18:36.891Z,9.90
2023-03-06T12:22:26.032Z,10.60
2023-03-06T12:26:09.088Z,9.30
2023-03-06T12:29:50.837Z,6.40
2023-03-06T12:33:40.262Z,8.40
2023-03-06T12:37:09.712Z,21.10
2023-03-06T12:41:42.524Z,16.60
2023-03-06T12:45:29.436Z,9.20
2023-03-06T12:49:31.416Z,13.20
2023-03-06T12:52:59.075Z,10.30
2023-03-06T12:56:34.416Z,7.00
2023-03-06T13:00:37.600Z,7.40
2023-03-06T13:04:38.284Z,8.80
2023-03-06T13:08:19.076Z,10.10
2023-03-06T13:12:13.398Z,9.00
2023-03-06T13:16:15.024Z,9.30
2023-03-06T13:19:37.825Z,7.80
2023-03-06T13:23:30.819Z,10.00
2023-03-06T13:26:59.634Z,9.60
2023-03-06T13:30:47.239Z,9.10
2023-03-06T13:34:37.540Z,12.30
2023-03-06T13:38:32.813Z,17.70
2023-03-06T13:41:57.458Z,13.40
2023-03-06T13:45:44.696Z,14.00
2023-03-06T13:49:10.694Z,10.90
2023-03-06T13:53:48.890Z,16.30
2023-03-06T13:57:47.635Z,10.60
2023-03-06T14:01:53.934Z,34.70
2023-03-06T14:05:18.217Z,12.30
2023-03-06T14:08:54.529Z,18.50
2023-03-06T14:12:50.421Z,21.30
2023-03-06T14:16:32.663Z,16.50
2023-03-06T14:20:15.589Z,15.80
2023-03-06T14:23:48.336Z,18.80
2023-03-06T14:27:18.990Z,16.90
2023-03-06T14:30:57.455Z,17.90
2023-03-06T14:34:51.147Z,23.50
2023-03-06T14:38:14.823Z,12.80
2023-03-06T14:41:51.136Z,20.80
2023-03-06T14:45:50.429Z,26.70
2023-03-06T14:49:20.992Z,20.90
2023-03-06T14:53:24.678Z,21.70
2023-03-06T14:57:14.755Z,37.10
2023-03-06T15:01:00.683Z,20.00
2023-03-06T15:04:48.102Z,32.20
2023-03-06T15:08:19.025Z,36.60
2023-03-06T15:12:22.204Z,7.80
2023-03-06T15:15:57.828Z,5.20
2023-03-06T15:19:54.076Z,7.00
2023-03-06T15:23:17.997Z,4.40
2023-03-06T15:27:19.238Z,4.60
2023-03-06T15:30:41.421Z,7.70
2023-03-06T15:34:38.063Z,7.10
2023-03-06T15:38:44.715Z,6.60
2023-03-06T15:42:20.708Z,7.60
2023-03-06T15:46:05.698Z,10.70
2023-03-06T15:49:51.191Z,13.90
2023-03-06T15:53:13.852Z,24.30
2023-03-06T15:57:20.784Z,11.90
2023-03-06T16:00:45.896Z,30.70
2023-03-06T16:04:24.853Z,51.50
2023-03-06T16:08:19.629Z,93.00
2023-03-06T16:12:07.064Z,83.20
2023-03-06T16:15:40.773Z,20.90
2023-03-06T16:19:28.133Z,27.40
2023-03-06T16:22:53.215Z,78.90
2023-03-06T16:26:31.790Z,81.40
2023-03-06T16:30:07.067Z,64.00
2023-03-06T16:34:02.404Z,91.40
2023-03-06T16:37:26.217Z,77.60
2023-03-06T16:41:22.485Z,84.10
2023-03-06T16:45:03.877Z,63.60
2023-03-06T16:48:26.021Z,95.00
2023-03-06T16:52:04.745Z,98.20
2023-03-06T16:56:04.950Z,111.50
2023-03-06T16:59:29.388Z,91.10
2023-03-06T17:03:27.024Z,91.70
2023-03-06T17:06:54.385Z,63.70
2023-03-06T17:10:50.209Z,92.60
2023-03-06T17:14:15.039Z,41.50
2023-03-06T17:18:11.331Z,56.30
2023-03-06T17:21:57.449Z,98.30
2023-03-06T17:25:20.111Z,55.20
2023-03-06T17:28:57.899Z,103.20
2023-03-06T17:32:54.350Z,51.70
2023-03-06T17:36:35.546Z,138.80
2023-03-06T17:39:58.206Z,93.60
2023-03-06T17:43:37.461Z,42.60
2023-03-06T17:47:13.616Z,69.30
2023-03-06T17:51:00.611Z,76.60
2023-03-06T17:54:30.220Z,68.50
2023-03-06T17:58:27.128Z,86.80
2023-03-06T18:01:49.417Z,46.60
2023-03-06T18:05:46.010Z,54.60
2023-03-06T18:09:10.187Z,47.50
2023-03-06T18:12:46.192Z,51.70
2023-03-06T18:16:26.999Z,43.90
2023-03-06T18:20:01.409Z,40.60
2023-03-06T18:23:39.680Z,36.10
2023-03-06T18:27:16.792Z,43.90
2023-03-06T18:30:54.374Z,41.60
2023-03-06T18:34:32.503Z,50.50
2023-03-06T18:38:28.676Z,55.90
2023-03-06T18:41:54.098Z,61.80
2023-03-06T18:45:29.802Z,37.50
2023-03-06T18:49:29.501Z,45.60
2023-03-06T18:52:52.692Z,41.40
2023-03-06T18:56:30.682Z,42.40
2023-03-06T19:00:28.965Z,45.10
2023-03-06T19:03:51.432Z,56.60
2023-03-06T19:07:48.039Z,46.10
2023-03-06T19:11:15.131Z,42.70
2023-03-06T19:14:57.766Z,56.90
2023-03-06T19:18:47.100Z,51.80
2023-03-06T19:22:15.114Z,48.10
2023-03-06T19:26:12.470Z,132.90
2023-03-06T19:29:39.039Z,60.80
2023-03-06T19:33:15.551Z,75.50
2023-03-06T19:36:52.054Z,76.90
2023-03-06T19:40:29.294Z,75.70
2023-03-06T19:44:07.067Z,76.70
2023-03-06T19:47:44.684Z,58.10
2023-03-06T19:51:22.838Z,74.10
2023-03-06T19:55:00.170Z,64.80
2023-03-06T19:58:41.068Z,79.30
2023-03-06T20:02:35.892Z,86.50
2023-03-06T20:05:58.122Z,114.50
2023-03-06T20:09:35.899Z,185.40
2023-03-06T20:13:32.313Z,90.30
2023-03-06T20:16:54.676Z,76.50
2023-03-06T20:21:01.582Z,77.60
2023-03-06T20:24:25.950Z,75.10
2023-03-06T20:28:01.463Z,59.70
2023-03-06T20:31:42.283Z,54.20
2023-03-06T20:35:41.869Z,55.80
2023-03-06T20:39:11.246Z,83.80
2023-03-06T20:42:44.777Z,84.10
2023-03-06T20:46:23.028Z,79.40
2023-03-06T20:50:18.852Z,80.80
2023-03-06T20:54:01.525Z,68.60
2023-03-06T20:57:43.098Z,59.70
2023-03-06T21:01:05.566Z,47.80
2023-03-06T21:04:43.244Z,56.60
2023-03-06T21:08:21.034Z,56.60
2023-03-06T21:12:18.143Z,63.70
2023-03-06T21:15:42.351Z,99.80
2023-03-06T21:19:37.100Z,95.80
2023-03-06T21:23:18.444Z,132.50
2023-03-06T21:26:40.793Z,172.10
2023-03-06T21:30:37.371Z,183.50
2023-03-06T21:34:00.703Z,138.80
2023-03-06T21:37:37.681Z,321.20
2023-03-06T21:41:34.160Z,148.60
2023-03-06T21:44:56.922Z,99.10
2023-03-06T21:48:54.488Z,75.80
2023-03-06T21:52:17.180Z,72.50
2023-03-06T21:56:16.595Z,66.60
2023-03-06T21:59:39.023Z,86.90
2023-03-06T22:03:35.423Z,116.40
2023-03-06T22:06:58.083Z,79.90
2023-03-06T22:10:38.901Z,67.10
2023-03-06T22:14:14.925Z,56.20
2023-03-06T22:17:50.873Z,62.00
2023-03-06T22:21:47.949Z,66.00
2023-03-06T22:25:33.723Z,107.80
2023-03-06T22:28:56.637Z,81.60
2023-03-06T22:32:52.954Z,89.60
2023-03-06T22:36:34.137Z,74.10
2023-03-06T22:39:56.218Z,56.50
2023-03-06T22:43:35.019Z,61.50
2023-03-06T22:47:11.624Z,64.20
2023-03-06T22:50:49.509Z,74.50
2023-03-06T22:54:26.970Z,87.10
2023-03-06T22:58:23.683Z,52.80
2023-03-06T23:02:04.684Z,51.00
2023-03-06T23:05:29.378Z,56.50
2023-03-06T23:09:24.558Z,62.50
2023-03-06T23:13:25.250Z,58.20
2023-03-06T23:17:06.867Z,66.80
2023-03-06T23:20:48.673Z,69.90
2023-03-06T23:24:30.396Z,62.20
2023-03-06T23:28:08.196Z,54.50
2023-03-06T23:31:45.773Z,40.60
2023-03-06T23:35:23.529Z,51.80
2023-03-06T23:39:20.014Z,49.60
2023-03-06T23:42:42.205Z,62.90
2023-03-06T23:46:19.558Z,47.90
2023-03-06T23:49:57.376Z,45.20
2023-03-06T23:53:35.517Z,50.30
2023-03-06T23:57:12.924Z,40.60
